Beamsville, Canada
Current Conditions -  °F | °C
As of 6:00 PM on Sunday 21 Dec 2014 (Local Time) from CYSN Reporting Station
Overcast Overcast  
Wind Chill: 26°   Ceiling: 3100
Heat Index: 32°   Visibility: 15mi
Dew Point: 21°   Wind: 6mph
Humidity: 64%   Direction: 190°S
Pressure: 30.31"   Gusts: NA
Location:  43.16°N, 79.48°W
Report Text: CYSN 212300Z 19005KT 15SM OVC031 00/M06 A3031 RMK SC8 SLP267
Loading
Personal Weather Stations






























Interactive Weather Map New forecast layout! Learn more

10-Day Weather Forecast

Advertisements
Track Severe Weather on mobile